Time;durP1;ratioP1;P1;durP2;ratioP2;P2;SDS_P1;SDS_P2;PMS_P1;PMS_P2;Temp;Humidity;BMP_temperature;BMP_pressure;BME280_temperature;BME280_humidity;BME280_pressure;Samples;Min_cycle;Max_cycle;Signal;HPM_P1;HPM_P2
2023/09/01 00:01:29;;;;;;;6.70;4.20;;;;;;;17.16;72.40;98968.39;221729;183;139141;-63
2023/09/01 00:06:41;;;;;;;8.90;4.20;;;;;;;17.05;72.15;98969.19;221668;183;137856;-61
2023/09/01 00:11:45;;;;;;;7.50;4.00;;;;;;;16.96;72.09;98972.20;221811;183;147849;-64
2023/09/01 00:16:52;;;;;;;5.50;3.90;;;;;;;16.92;72.28;98974.37;221678;181;139733;-64
2023/09/01 00:21:57;;;;;;;6.50;4.50;;;;;;;16.92;72.34;98971.64;221673;182;137390;-63
2023/09/01 00:27:04;;;;;;;7.90;4.50;;;;;;;16.92;72.60;98977.89;221788;182;147276;-63
2023/09/01 00:32:07;;;;;;;8.40;4.40;;;;;;;16.97;72.80;98969.80;221776;181;140448;-61
2023/09/01 00:37:12;;;;;;;6.70;4.30;;;;;;;16.98;72.70;98980.97;221649;182;137710;-62
2023/09/01 00:42:17;;;;;;;5.10;3.80;;;;;;;16.97;72.43;98971.77;221813;182;147793;-62
2023/09/01 00:47:22;;;;;;;5.50;3.80;;;;;;;16.93;72.30;98968.33;221633;183;139955;-63
2023/09/01 00:52:27;;;;;;;7.80;3.50;;;;;;;16.93;72.22;98971.02;221724;182;137009;-62
2023/09/01 00:57:32;;;;;;;5.50;3.70;;;;;;;16.95;71.86;98970.30;221620;183;148669;-62
2023/09/01 01:02:37;;;;;;;6.50;3.20;;;;;;;17.00;71.38;98972.52;221660;182;138782;-64
2023/09/01 01:08:00;;;;;;;4.40;3.00;;;;;;;17.05;70.87;98972.65;221692;182;137544;-65
2023/09/01 01:13:19;;;;;;;6.30;3.10;;;;;;;17.08;70.75;98970.92;221705;179;147348;-63
2023/09/01 01:18:28;;;;;;;7.90;3.30;;;;;;;17.08;70.38;98970.04;221676;182;139037;-61
2023/09/01 01:23:34;;;;;;;6.30;3.20;;;;;;;17.09;70.29;98976.27;221584;182;137369;-63
2023/09/01 01:28:39;;;;;;;6.20;3.30;;;;;;;17.09;70.02;98976.98;221656;182;149965;-62
2023/09/01 01:34:03;;;;;;;5.30;2.90;;;;;;;17.05;69.80;98987.35;221524;178;140538;-63
2023/09/01 01:39:28;;;;;;;6.20;3.00;;;;;;;17.03;69.69;98989.44;221736;182;137422;-59
2023/09/01 01:44:39;;;;;;;7.50;2.80;;;;;;;17.04;69.59;98987.98;221689;181;147604;-62
2023/09/01 01:49:45;;;;;;;8.10;3.20;;;;;;;17.06;69.42;98988.53;221640;183;140730;-62
2023/09/01 01:54:50;;;;;;;6.20;3.10;;;;;;;17.06;69.39;98985.10;221663;181;137878;-63
2023/09/01 01:59:55;;;;;;;4.80;3.40;;;;;;;17.00;69.38;98985.79;221860;181;148048;-64
2023/09/01 02:05:00;;;;;;;7.20;3.20;;;;;;;16.97;69.46;98986.25;221769;181;138859;-61
2023/09/01 02:10:08;;;;;;;6.00;3.40;;;;;;;16.90;69.50;98981.73;221665;182;137846;-60
2023/09/01 02:15:11;;;;;;;5.90;3.50;;;;;;;16.84;69.67;98980.48;221725;181;147917;-61
2023/09/01 02:20:17;;;;;;;4.00;3.60;;;;;;;16.75;69.69;98984.98;221786;182;137932;-61
2023/09/01 02:25:22;;;;;;;5.70;3.20;;;;;;;16.64;69.72;98990.38;221696;181;137506;-62
2023/09/01 02:30:29;;;;;;;7.80;3.50;;;;;;;16.62;70.04;98995.82;221637;182;147279;-63
2023/09/01 02:35:44;;;;;;;7.50;3.30;;;;;;;16.63;69.98;98998.91;221629;182;138985;-61
2023/09/01 02:40:48;;;;;;;5.40;2.80;;;;;;;16.61;69.76;98997.63;221651;183;137351;-61
2023/09/01 02:45:52;;;;;;;5.10;3.00;;;;;;;16.58;69.50;98993.61;221776;179;147994;-64
2023/09/01 02:50:59;;;;;;;6.50;3.20;;;;;;;16.53;69.54;98989.20;221689;181;138983;-62
2023/09/01 02:56:05;;;;;;;5.10;3.50;;;;;;;16.51;69.61;98983.61;221752;182;138140;-60
2023/09/01 03:01:12;;;;;;;5.90;2.90;;;;;;;16.47;69.73;98980.09;221644;182;146689;-60
2023/09/01 03:06:17;;;;;;;7.60;3.80;;;;;;;16.43;70.18;98973.11;221820;182;139394;-61
2023/09/01 03:11:21;;;;;;;6.70;3.50;;;;;;;16.37;70.27;98976.38;221750;181;138529;-61
2023/09/01 03:16:30;;;;;;;6.80;2.90;;;;;;;16.35;70.04;98979.30;221746;182;159772;-62
2023/09/01 03:21:35;;;;;;;6.80;2.70;;;;;;;16.32;69.70;98977.92;221673;182;138490;-61
2023/09/01 03:26:39;;;;;;;5.30;3.30;;;;;;;16.29;69.70;98983.39;221626;178;137559;-60
2023/09/01 03:31:45;;;;;;;5.50;3.20;;;;;;;16.25;69.87;98988.61;221646;182;148348;-62
2023/09/01 03:36:50;;;;;;;5.10;3.40;;;;;;;16.18;70.26;98997.27;221823;179;139133;-64
2023/09/01 03:41:54;;;;;;;6.90;3.50;;;;;;;16.12;70.51;99001.58;221724;183;137322;-60
2023/09/01 03:46:59;;;;;;;5.20;3.30;;;;;;;16.04;70.62;99018.56;221643;183;147515;-61
2023/09/01 03:52:06;;;;;;;8.70;3.70;;;;;;;15.97;70.89;99015.68;221669;182;141030;-61
2023/09/01 03:57:09;;;;;;;9.30;3.40;;;;;;;15.92;71.00;99015.80;221691;183;141374;-63
2023/09/01 04:02:15;;;;;;;7.00;3.60;;;;;;;15.90;70.88;99018.85;221672;182;147781;-62
2023/09/01 04:07:20;;;;;;;7.10;3.90;;;;;;;15.87;70.90;99017.27;221810;182;140514;-61
2023/09/01 04:12:25;;;;;;;8.50;3.80;;;;;;;15.88;70.84;99016.52;221778;182;138983;-61
2023/09/01 04:17:30;;;;;;;7.30;3.90;;;;;;;15.84;70.79;99010.87;221670;182;147719;-63
2023/09/01 04:22:35;;;;;;;8.70;3.40;;;;;;;15.81;70.84;99010.84;221585;182;138975;-65
2023/09/01 04:27:40;;;;;;;8.10;3.70;;;;;;;15.79;70.80;99014.36;221732;181;138857;-64
2023/09/01 04:32:46;;;;;;;7.20;3.80;;;;;;;15.76;70.90;99014.64;221743;182;148690;-63
2023/09/01 04:37:50;;;;;;;6.00;3.40;;;;;;;15.75;70.80;99019.88;221666;182;139585;-61
2023/09/01 04:42:56;;;;;;;10.80;3.60;;;;;;;15.75;70.80;99020.94;221760;180;138850;-61
2023/09/01 04:48:00;;;;;;;5.50;3.20;;;;;;;15.81;70.93;99030.69;221745;181;147341;-61
2023/09/01 04:53:06;;;;;;;9.30;3.40;;;;;;;15.84;70.68;99036.08;221676;181;139524;-62
2023/09/01 04:58:09;;;;;;;7.00;3.60;;;;;;;15.85;70.43;99039.99;223886;178;136654;-62
2023/09/01 05:03:13;;;;;;;9.50;3.40;;;;;;;15.88;70.07;99039.34;223769;181;148171;-62
2023/09/01 05:08:17;;;;;;;6.80;3.20;;;;;;;15.93;69.93;99038.23;223885;181;138604;-61
2023/09/01 05:13:21;;;;;;;8.60;3.40;;;;;;;15.96;69.79;99040.70;223848;181;136892;-62
2023/09/01 05:18:24;;;;;;;8.30;3.50;;;;;;;15.99;69.59;99043.64;223869;182;147266;-62
2023/09/01 05:27:12;;;;;;;8.70;3.40;;;;;;;16.17;69.30;99043.55;220420;193;666716;-63
2023/09/01 05:32:17;;;;;;;12.00;3.40;;;;;;;16.29;69.17;99040.56;221568;186;137188;-62
2023/09/01 05:37:23;;;;;;;10.30;3.80;;;;;;;16.41;68.60;99040.79;221549;187;144041;-61
2023/09/01 05:42:29;;;;;;;7.30;3.80;;;;;;;16.46;68.36;99047.33;221845;185;138760;-63
2023/09/01 05:47:36;;;;;;;9.20;3.60;;;;;;;16.49;67.99;99045.48;221766;183;137074;-60
2023/09/01 05:52:41;;;;;;;6.70;3.30;;;;;;;16.53;67.90;99048.83;221723;184;143691;-60
2023/09/01 05:57:46;;;;;;;13.10;3.80;;;;;;;16.57;67.60;99049.58;221699;184;138618;-60
2023/09/01 06:02:52;;;;;;;6.00;3.00;;;;;;;16.63;67.08;99052.71;221607;183;137062;-61
2023/09/01 06:07:58;;;;;;;6.00;2.80;;;;;;;16.66;66.17;99060.77;221733;184;143687;-61
2023/09/01 06:13:03;;;;;;;6.60;2.70;;;;;;;16.70;65.81;99071.19;221712;184;139728;-62
2023/09/01 06:18:07;;;;;;;6.50;3.20;;;;;;;16.81;65.76;99072.81;221622;184;138051;-63
2023/09/01 06:23:10;;;;;;;5.70;3.00;;;;;;;16.96;65.54;99070.21;221790;185;146059;-62
2023/09/01 06:28:15;;;;;;;8.30;3.40;;;;;;;17.05;65.11;99072.64;221709;184;139483;-62
2023/09/01 06:33:20;;;;;;;7.60;2.70;;;;;;;17.12;64.49;99083.17;221643;184;137990;-61
2023/09/01 06:38:24;;;;;;;6.10;3.00;;;;;;;17.19;64.21;99084.52;221805;182;146290;-62
2023/09/01 06:43:31;;;;;;;7.40;2.70;;;;;;;17.26;63.79;99080.33;221656;184;139064;-65
2023/09/01 06:48:35;;;;;;;7.70;2.50;;;;;;;17.30;63.65;99079.04;221803;184;136503;-65
2023/09/01 06:53:39;;;;;;;6.10;2.80;;;;;;;17.41;63.45;99080.43;221821;184;145919;-62
2023/09/01 06:58:45;;;;;;;6.30;2.30;;;;;;;17.54;63.16;99080.66;221672;184;139003;-62
2023/09/01 07:03:52;;;;;;;8.90;3.00;;;;;;;17.65;62.81;99083.27;221545;184;137046;-64
2023/09/01 07:08:57;;;;;;;12.10;3.20;;;;;;;17.75;62.29;99080.70;221730;184;146593;-62
2023/09/01 07:14:02;;;;;;;13.00;3.00;;;;;;;17.88;61.87;99073.09;221800;184;140432;-64
2023/09/01 07:19:06;;;;;;;4.70;2.50;;;;;;;18.02;60.87;99072.91;221785;180;137660;-62
2023/09/01 07:24:11;;;;;;;8.30;2.90;;;;;;;18.15;60.17;99078.16;221786;184;146173;-63
2023/09/01 07:29:16;;;;;;;5.30;2.30;;;;;;;18.29;59.62;99075.78;221776;184;139426;-63
2023/09/01 07:34:21;;;;;;;4.50;1.80;;;;;;;18.45;58.83;99078.23;221762;184;137311;-66
2023/09/01 07:39:26;;;;;;;3.30;1.90;;;;;;;18.59;57.58;99084.33;221770;184;145768;-64
2023/09/01 07:44:31;;;;;;;3.80;2.00;;;;;;;18.66;56.07;99088.08;221691;184;139409;-64
2023/09/01 07:49:35;;;;;;;3.90;1.80;;;;;;;18.72;55.14;99087.06;221719;184;139835;-63
2023/09/01 07:54:40;;;;;;;3.20;1.70;;;;;;;18.78;54.18;99089.14;221753;184;146368;-65
2023/09/01 07:59:44;;;;;;;3.20;1.70;;;;;;;18.82;53.29;99096.73;221737;184;139065;-62
2023/09/01 08:04:49;;;;;;;3.70;2.00;;;;;;;18.88;53.30;99094.67;221691;184;137035;-64
2023/09/01 08:09:53;;;;;;;4.80;1.90;;;;;;;18.97;53.07;99088.44;221729;184;145638;-62
2023/09/01 08:14:58;;;;;;;3.00;1.70;;;;;;;19.07;52.95;99087.85;221708;184;139064;-61
2023/09/01 08:20:05;;;;;;;4.50;2.20;;;;;;;19.18;52.97;99082.98;221646;184;138566;-61
2023/09/01 08:25:09;;;;;;;4.80;2.10;;;;;;;19.32;52.28;99081.27;221739;184;145806;-62
2023/09/01 08:30:15;;;;;;;2.60;1.60;;;;;;;19.43;51.73;99087.77;221658;184;138612;-62
2023/09/01 08:35:20;;;;;;;4.90;2.00;;;;;;;19.55;51.25;99088.38;221715;184;136843;-64
2023/09/01 08:40:24;;;;;;;9.10;2.00;;;;;;;19.64;49.35;99084.93;221742;183;147658;-63
2023/09/01 08:45:32;;;;;;;5.60;1.80;;;;;;;19.80;49.65;99083.37;221798;182;138950;-61
2023/09/01 08:50:36;;;;;;;5.70;1.80;;;;;;;19.98;49.25;99086.45;221721;184;136987;-62
2023/09/01 08:55:41;;;;;;;5.00;2.20;;;;;;;20.17;49.02;99088.51;221746;184;147443;-62
2023/09/01 09:00:48;;;;;;;7.00;2.00;;;;;;;20.27;48.69;99085.09;221772;184;139667;-62
2023/09/01 09:05:52;;;;;;;3.70;2.10;;;;;;;20.34;49.07;99091.50;221614;184;137500;-65
2023/09/01 09:10:58;;;;;;;3.70;2.10;;;;;;;20.51;49.27;99094.38;221670;184;145884;-64
2023/09/01 09:16:08;;;;;;;3.20;1.80;;;;;;;20.65;48.94;99097.30;221793;184;140383;-63
2023/09/01 09:21:31;;;;;;;7.70;2.20;;;;;;;20.73;48.47;99094.53;221659;184;138066;-62
2023/09/01 09:26:36;;;;;;;6.90;1.80;;;;;;;20.71;47.51;99097.97;221722;184;145680;-62
2023/09/01 09:31:40;;;;;;;5.20;1.80;;;;;;;20.85;46.64;99098.13;221673;184;140382;-62
2023/09/01 09:36:47;;;;;;;3.60;1.80;;;;;;;21.03;45.80;99091.92;221891;184;137810;-63
2023/09/01 09:41:54;;;;;;;2.70;1.70;;;;;;;21.23;44.76;99107.19;221589;184;147664;-62
2023/09/01 09:47:00;;;;;;;3.10;1.60;;;;;;;21.09;44.38;99106.06;221817;184;138896;-63
2023/09/01 09:52:09;;;;;;;4.20;1.90;;;;;;;20.96;45.24;99108.14;221645;184;137731;-63
2023/09/01 09:57:15;;;;;;;6.00;2.00;;;;;;;21.15;45.44;99101.72;221762;184;146417;-63
2023/09/01 10:02:29;;;;;;;6.30;2.10;;;;;;;21.35;45.11;99108.77;221582;184;139982;-62
2023/09/01 10:07:34;;;;;;;6.80;2.40;;;;;;;21.54;44.54;99103.35;221666;184;137361;-64
2023/09/01 10:12:40;;;;;;;4.60;2.20;;;;;;;21.63;44.53;99099.90;221741;184;146477;-62
2023/09/01 10:17:48;;;;;;;7.60;2.30;;;;;;;21.81;44.14;99089.92;221674;184;139785;-61
2023/09/01 10:22:54;;;;;;;6.80;2.20;;;;;;;22.17;44.27;99090.10;221772;184;137489;-61
2023/09/01 10:28:06;;;;;;;4.60;2.20;;;;;;;22.42;42.17;99100.14;221803;184;147261;-63
2023/09/01 10:33:15;;;;;;;6.30;2.10;;;;;;;22.53;42.67;99089.16;221709;184;139949;-62
2023/09/01 10:38:37;;;;;;;4.10;2.00;;;;;;;22.78;41.38;99095.18;221656;184;137218;-61
2023/09/01 10:43:41;;;;;;;5.80;2.30;;;;;;;22.87;40.56;99099.99;221777;184;146724;-62
2023/09/01 10:48:59;;;;;;;4.20;1.90;;;;;;;22.82;41.00;99093.69;221649;184;138751;-63
2023/09/01 10:54:15;;;;;;;6.50;2.10;;;;;;;22.89;41.00;99090.05;221659;184;137235;-63
2023/09/01 10:59:48;;;;;;;5.00;1.80;;;;;;;23.10;41.51;99087.31;221740;184;146171;-63
2023/09/01 11:04:53;;;;;;;3.70;1.80;;;;;;;23.12;41.30;99082.38;221707;184;138959;-63
2023/09/01 11:09:58;;;;;;;4.30;2.20;;;;;;;23.13;41.01;99081.13;221654;184;137743;-63
2023/09/01 11:15:08;;;;;;;4.30;2.00;;;;;;;23.17;41.65;99078.16;221679;184;146015;-61
2023/09/01 11:20:18;;;;;;;5.80;1.90;;;;;;;23.06;42.10;99079.45;221671;184;138899;-63
2023/09/01 11:25:24;;;;;;;7.60;2.10;;;;;;;22.91;41.61;99084.02;221762;184;136818;-63
2023/09/01 11:30:29;;;;;;;5.90;2.10;;;;;;;22.83;41.50;99079.71;221851;184;146371;-63
2023/09/01 11:35:34;;;;;;;6.40;2.40;;;;;;;22.73;41.72;99080.68;221700;184;138869;-63
2023/09/01 11:40:39;;;;;;;11.90;4.20;;;;;;;22.91;41.85;99078.17;221767;184;139211;-62
2023/09/01 11:45:48;;;;;;;6.50;2.60;;;;;;;23.25;41.97;99073.30;221619;181;145537;-65
2023/09/01 11:50:57;;;;;;;3.90;2.00;;;;;;;23.74;41.25;99070.48;221682;182;138728;-64
2023/09/01 11:56:20;;;;;;;5.60;2.20;;;;;;;24.11;40.46;99066.08;221731;182;140124;-62
2023/09/01 12:01:31;;;;;;;4.90;2.10;;;;;;;24.47;39.93;99067.61;221811;184;147195;-62
2023/09/01 12:06:46;;;;;;;4.10;2.00;;;;;;;24.61;38.73;99069.94;221830;182;139048;-64
2023/09/01 12:11:53;;;;;;;7.00;1.90;;;;;;;24.68;39.09;99061.39;223893;183;138205;-62
2023/09/01 12:16:58;;;;;;;4.30;2.00;;;;;;;24.75;38.42;99060.91;223826;183;145937;-63
2023/09/01 12:27:17;;;;;;;3.20;2.20;;;;;;;24.42;38.65;99054.36;220522;189;666625;-64
2023/09/01 12:32:22;;;;;;;6.90;2.20;;;;;;;24.37;38.96;99052.15;221555;186;136781;-62
2023/09/01 12:37:26;;;;;;;4.50;2.00;;;;;;;24.68;38.32;99054.92;221999;182;144962;-65
2023/09/01 12:42:31;;;;;;;;;;;;;;;25.05;38.23;99046.78;221918;181;139376;-63
2023/09/01 12:47:36;;;;;;;2.70;1.70;;;;;;;24.79;36.80;99041.01;221995;181;129858;-62
2023/09/01 12:52:40;;;;;;;;;;;;;;;24.83;37.23;99048.73;221928;182;145711;-64
2023/09/01 12:57:45;;;;;;;4.50;2.00;;;;;;;24.82;36.82;99037.10;222038;181;139662;-61
2023/09/01 13:02:52;;;;;;;4.20;2.20;;;;;;;24.85;37.09;99041.01;221906;204;137089;-59
2023/09/01 13:07:59;;;;;;;5.90;2.00;;;;;;;25.08;37.33;99042.45;222081;181;144209;-61
2023/09/01 13:13:03;;;;;;;5.20;2.70;;;;;;;25.05;37.07;99042.08;222031;181;138764;-61
2023/09/01 13:18:08;;;;;;;;;;;;;;;24.80;37.27;99038.00;222045;181;137449;-59
2023/09/01 13:23:11;;;;;;;3.30;1.90;;;;;;;24.51;37.77;99035.67;222002;181;145720;-59
2023/09/01 13:28:18;;;;;;;7.40;2.10;;;;;;;24.42;37.67;99038.68;221854;182;139125;-60
2023/09/01 13:33:23;;;;;;;5.20;2.10;;;;;;;24.27;37.48;99042.77;221720;181;136976;-61
2023/09/01 13:38:30;;;;;;;6.90;2.40;;;;;;;24.00;37.95;99038.02;221861;182;145665;-59
2023/09/01 13:43:35;;;;;;;3.60;2.10;;;;;;;23.83;38.74;99034.66;221752;182;138759;-61
2023/09/01 13:48:40;;;;;;;5.40;2.30;;;;;;;23.66;38.83;99036.08;221820;181;137085;-61
2023/09/01 13:53:45;;;;;;;5.80;2.20;;;;;;;23.62;39.52;99034.42;221824;182;145938;-59
2023/09/01 13:58:49;;;;;;;4.40;2.00;;;;;;;23.62;39.53;99030.85;221842;181;140915;-61
2023/09/01 14:03:53;;;;;;;4.70;2.50;;;;;;;23.55;39.46;99027.94;221918;181;137007;-58
2023/09/01 14:09:00;;;;;;;4.20;1.80;;;;;;;23.48;39.62;99033.52;221820;182;146054;-59
2023/09/01 14:14:06;;;;;;;3.70;2.00;;;;;;;23.49;39.56;99029.95;221860;182;139032;-61
2023/09/01 14:19:09;;;;;;;4.50;2.20;;;;;;;23.58;39.79;99038.35;221850;181;136719;-59
2023/09/01 14:24:14;;;;;;;5.00;2.20;;;;;;;23.58;39.53;99043.38;221781;181;146092;-61
2023/09/01 14:29:19;;;;;;;4.70;2.20;;;;;;;23.56;39.71;99043.08;221918;181;138679;-60
2023/09/01 14:34:23;;;;;;;5.30;2.40;;;;;;;23.52;40.17;99041.17;221856;181;136714;-60
2023/09/01 14:39:28;;;;;;;6.30;2.30;;;;;;;23.47;40.26;99040.68;221909;181;145517;-61
2023/09/01 14:44:33;;;;;;;10.60;4.80;;;;;;;23.40;40.62;99040.95;221933;181;140019;-59
2023/09/01 14:49:38;;;;;;;4.80;2.40;;;;;;;23.35;40.60;99044.04;221957;181;137941;-60
2023/09/01 14:54:43;;;;;;;5.70;2.30;;;;;;;23.30;40.66;99046.04;221846;181;145362;-61
2023/09/01 14:59:50;;;;;;;5.10;2.20;;;;;;;23.21;40.20;99046.23;221716;183;139100;-62
2023/09/01 15:04:54;;;;;;;3.40;2.00;;;;;;;23.05;40.25;99053.70;221861;181;137933;-62
2023/09/01 15:10:02;;;;;;;4.30;2.20;;;;;;;22.85;40.72;99060.09;221872;181;147093;-63
2023/09/01 15:15:11;;;;;;;3.10;1.80;;;;;;;22.72;41.06;99052.83;221843;182;140401;-63
2023/09/01 15:20:15;;;;;;;5.40;2.10;;;;;;;22.66;41.49;99050.30;221884;181;136756;-61
2023/09/01 15:25:23;;;;;;;4.10;2.10;;;;;;;22.59;41.47;99056.17;221880;181;147170;-63
2023/09/01 15:30:29;;;;;;;4.30;2.10;;;;;;;22.52;41.56;99057.14;221859;182;139080;-62
2023/09/01 15:35:33;;;;;;;5.30;2.30;;;;;;;22.46;41.91;99045.65;221858;181;137227;-63
2023/09/01 15:40:37;;;;;;;5.20;2.40;;;;;;;22.46;42.27;99038.60;221852;181;146010;-64
2023/09/01 15:45:45;;;;;;;4.80;2.40;;;;;;;22.45;42.30;99035.98;221844;182;138836;-62
2023/09/01 15:50:58;;;;;;;6.10;3.10;;;;;;;22.44;42.66;99039.88;221793;182;137312;-61
2023/09/01 15:56:04;;;;;;;4.50;2.00;;;;;;;22.44;42.92;99047.64;221839;182;145465;-63
2023/09/01 16:01:07;;;;;;;;;;;;;;;22.37;43.20;99048.67;221773;181;140853;-61
2023/09/01 16:06:32;;;;;;;3.10;1.90;;;;;;;22.33;43.53;99043.90;221855;181;131191;-62
2023/09/01 16:11:39;;;;;;;4.50;2.50;;;;;;;22.29;44.02;99042.61;221932;181;145866;-63
2023/09/01 16:16:44;;;;;;;3.90;2.40;;;;;;;22.29;44.33;99040.43;221788;181;140164;-64
2023/09/01 16:21:50;;;;;;;4.30;2.00;;;;;;;22.29;44.45;99038.11;221893;181;138554;-63
2023/09/01 16:26:54;;;;;;;4.30;2.20;;;;;;;22.31;44.60;99036.44;221923;182;145465;-61
2023/09/01 16:32:00;;;;;;;;;;;;;;;22.32;44.83;99033.16;221891;182;139246;-61
2023/09/01 16:37:04;;;;;;;5.70;2.70;;;;;;;22.30;45.02;99040.34;221857;182;131584;-60
2023/09/01 16:42:08;;;;;;;3.70;2.20;;;;;;;22.30;45.09;99036.98;221963;182;145870;-60
2023/09/01 16:47:13;;;;;;;4.50;2.20;;;;;;;22.26;45.16;99039.15;221853;182;140596;-60
2023/09/01 16:52:19;;;;;;;4.00;2.10;;;;;;;22.24;45.50;99039.29;221850;182;136817;-61
2023/09/01 16:57:24;;;;;;;;;;;;;;;22.18;45.59;99044.17;221910;181;145644;-61
2023/09/01 17:02:28;;;;;;;5.10;2.50;;;;;;;22.12;46.04;99054.60;222076;181;138717;-60
2023/09/01 17:07:32;;;;;;;6.80;2.70;;;;;;;22.09;46.84;99054.06;221998;181;137921;-59
2023/09/01 17:12:41;;;;;;;7.50;2.10;;;;;;;22.02;46.95;99055.08;221920;181;145585;-62
2023/09/01 17:17:46;;;;;;;7.40;2.50;;;;;;;21.96;47.09;99053.30;221858;178;139368;-60
2023/09/01 17:22:51;;;;;;;5.60;3.10;;;;;;;21.91;47.59;99055.64;221873;181;136809;-61
2023/09/01 17:27:55;;;;;;;9.80;3.40;;;;;;;21.90;47.87;99058.64;221911;182;145885;-60
2023/09/01 17:33:01;;;;;;;5.60;2.70;;;;;;;21.87;48.16;99066.70;221799;181;140115;-63
2023/09/01 17:38:06;;;;;;;8.00;2.50;;;;;;;21.85;48.69;99069.35;221918;181;137073;-60
2023/09/01 17:43:12;;;;;;;7.00;3.00;;;;;;;21.86;49.25;99072.77;221949;181;145689;-61
2023/09/01 17:48:17;;;;;;;7.70;2.90;;;;;;;21.88;49.77;99077.13;221983;180;140542;-60
2023/09/01 17:53:21;;;;;;;10.90;3.60;;;;;;;21.89;50.10;99080.42;221888;181;138032;-60
2023/09/01 17:58:28;;;;;;;10.30;3.40;;;;;;;21.89;50.69;99076.97;221837;181;146194;-62
2023/09/01 18:03:41;;;;;;;29.90;4.50;;;;;;;21.89;52.48;99080.94;221870;181;140628;-65
2023/09/01 18:08:46;;;;;;;5.20;2.80;;;;;;;21.85;50.60;99089.77;221877;181;137915;-66
2023/09/01 18:13:51;;;;;;;6.40;3.10;;;;;;;21.63;50.59;99093.84;221953;181;145744;-64
2023/09/01 18:18:57;;;;;;;;;;;;;;;21.63;53.04;99087.73;221875;182;140051;-63
2023/09/01 18:24:13;;;;;;;10.60;2.60;;;;;;;21.67;53.06;99083.52;222026;181;133262;-58
2023/09/01 18:29:23;;;;;;;9.80;3.10;;;;;;;21.65;52.75;99089.31;221906;182;145841;-59
2023/09/01 18:34:37;;;;;;;6.30;2.90;;;;;;;21.64;53.01;99094.50;222011;182;138455;-59
2023/09/01 18:39:42;;;;;;;17.90;3.30;;;;;;;21.67;53.50;99095.08;221847;182;136862;-58
2023/09/01 18:44:47;;;;;;;7.90;3.10;;;;;;;21.69;53.29;99090.88;222111;181;148194;-59
2023/09/01 18:49:53;;;;;;;11.40;3.70;;;;;;;21.65;53.25;99092.30;221779;181;139471;-59
2023/09/01 18:54:59;;;;;;;6.00;2.90;;;;;;;21.63;53.80;99097.40;221968;181;137550;-61
2023/09/01 19:00:11;;;;;;;11.70;3.60;;;;;;;21.60;54.40;99101.11;221951;181;145720;-59
2023/09/01 19:05:30;;;;;;;8.20;3.30;;;;;;;21.64;54.96;99103.94;221848;181;139936;-61
2023/09/01 19:10:39;;;;;;;8.00;3.10;;;;;;;21.67;54.38;99101.80;221856;181;138572;-60
2023/09/01 19:15:54;;;;;;;5.40;3.30;;;;;;;21.64;54.71;99103.94;221781;182;148046;-60
2023/09/01 19:21:03;;;;;;;5.00;2.90;;;;;;;21.63;55.02;99105.26;221913;181;138657;-59
2023/09/01 19:26:13;;;;;;;5.50;3.30;;;;;;;21.61;55.26;99107.11;221876;181;137360;-59
2023/09/01 19:31:21;;;;;;;8.30;3.30;;;;;;;21.60;54.95;99112.63;221865;181;145893;-61
2023/09/01 19:36:29;;;;;;;7.30;3.70;;;;;;;21.50;55.41;99109.16;221841;181;140150;-61
2023/09/01 19:41:39;;;;;;;8.10;3.40;;;;;;;21.49;55.12;99109.49;221869;181;138315;-61
2023/09/01 19:46:43;;;;;;;9.60;3.50;;;;;;;21.33;55.34;99107.58;221852;181;146538;-59
2023/09/01 19:51:48;;;;;;;6.90;3.10;;;;;;;21.27;55.47;99102.57;221745;181;140414;-59
2023/09/01 19:56:54;;;;;;;8.20;3.60;;;;;;;21.23;56.57;99103.33;221778;182;137418;-60
2023/09/01 20:01:59;;;;;;;8.70;3.40;;;;;;;21.20;56.77;99105.53;221861;181;148828;-60
2023/09/01 20:07:03;;;;;;;5.40;3.40;;;;;;;21.12;57.00;99113.52;221793;181;140760;-61
2023/09/01 20:12:08;;;;;;;8.40;3.50;;;;;;;21.02;57.61;99116.01;221864;181;138080;-61
2023/09/01 20:17:12;;;;;;;7.50;4.00;;;;;;;20.98;57.72;99121.52;221776;182;145807;-60
2023/09/01 20:22:18;;;;;;;10.10;4.00;;;;;;;20.93;57.94;99119.83;221702;181;138988;-61
2023/09/01 20:27:24;;;;;;;10.10;4.10;;;;;;;20.98;57.94;99118.41;221787;181;140730;-60
2023/09/01 20:32:30;;;;;;;10.50;4.20;;;;;;;20.98;57.55;99125.05;221847;182;145808;-59
2023/09/01 20:37:38;;;;;;;7.10;3.50;;;;;;;20.98;57.42;99128.00;221786;181;140652;-59
2023/09/01 20:42:42;;;;;;;6.30;3.70;;;;;;;20.97;57.37;99128.05;221769;182;140575;-59
2023/09/01 20:47:46;;;;;;;13.20;4.20;;;;;;;20.99;57.68;99129.30;221809;182;145771;-61
2023/09/01 20:52:49;;;;;;;6.20;3.50;;;;;;;21.02;57.95;99135.33;221765;181;140325;-59
2023/09/01 20:57:56;;;;;;;5.10;3.00;;;;;;;21.00;57.57;99134.77;221799;181;137335;-60
2023/09/01 21:03:02;;;;;;;7.20;3.50;;;;;;;20.98;57.64;99134.60;221957;182;148634;-60
2023/09/01 21:08:10;;;;;;;6.30;3.30;;;;;;;20.96;57.66;99137.91;221678;181;139951;-60
2023/09/01 21:13:15;;;;;;;6.20;3.30;;;;;;;20.95;57.90;99135.27;221784;181;138521;-60
2023/09/01 21:18:20;;;;;;;5.80;3.20;;;;;;;21.00;58.76;99134.80;221849;181;149486;-60
2023/09/01 21:23:25;;;;;;;7.00;3.40;;;;;;;21.00;58.47;99134.08;221786;181;138656;-61
2023/09/01 21:28:30;;;;;;;4.00;3.00;;;;;;;20.94;58.66;99130.73;221786;181;137965;-59
2023/09/01 21:33:35;;;;;;;6.70;3.40;;;;;;;20.92;59.71;99133.63;221891;181;147704;-60
2023/09/01 21:38:41;;;;;;;5.90;3.30;;;;;;;20.91;60.50;99131.47;221752;182;138542;-59
2023/09/01 21:43:45;;;;;;;7.00;4.10;;;;;;;20.93;61.31;99134.27;221861;181;137400;-58
2023/09/01 21:48:51;;;;;;;12.50;4.60;;;;;;;20.96;62.58;99137.55;221819;182;147479;-60
2023/09/01 21:53:56;;;;;;;12.90;4.70;;;;;;;21.03;62.99;99127.95;221889;182;140069;-60
2023/09/01 21:59:03;;;;;;;10.60;4.70;;;;;;;21.11;63.04;99122.54;221818;181;137735;-59
2023/09/01 22:04:07;;;;;;;10.60;4.50;;;;;;;21.10;62.58;99116.89;221882;181;147616;-59
2023/09/01 22:09:13;;;;;;;12.60;4.90;;;;;;;21.17;62.80;99118.11;221741;181;140269;-59
2023/09/01 22:14:18;;;;;;;12.40;4.50;;;;;;;21.15;61.87;99127.65;221871;181;137278;-59
2023/09/01 22:19:28;;;;;;;7.70;4.60;;;;;;;21.10;61.65;99120.95;221979;182;148145;-59
2023/09/01 22:24:35;;;;;;;11.50;4.50;;;;;;;20.99;62.10;99113.20;221851;181;139037;-60
2023/09/01 22:29:41;;;;;;;9.30;4.70;;;;;;;20.81;62.32;99110.99;221902;181;137325;-61
2023/09/01 22:34:44;;;;;;;9.40;5.00;;;;;;;20.62;63.03;99112.44;221952;180;147433;-60
2023/09/01 22:39:50;;;;;;;12.10;5.10;;;;;;;20.48;63.20;99115.80;221853;182;140337;-62
2023/09/01 22:44:55;;;;;;;10.40;4.30;;;;;;;20.30;63.72;99114.25;221912;181;137847;-60
2023/09/01 22:50:01;;;;;;;10.50;4.20;;;;;;;20.23;64.16;99111.83;221853;181;148227;-61
2023/09/01 22:55:06;;;;;;;9.10;4.50;;;;;;;20.19;64.73;99110.09;221771;181;140986;-60
2023/09/01 23:00:10;;;;;;;9.60;4.20;;;;;;;20.25;65.03;99105.85;221754;181;139903;-62
2023/09/01 23:05:14;;;;;;;10.30;4.50;;;;;;;20.27;64.89;99105.48;221853;181;147723;-61
2023/09/01 23:10:18;;;;;;;8.00;4.60;;;;;;;20.20;65.26;99102.45;221833;181;138845;-61
2023/09/01 23:15:26;;;;;;;8.70;4.00;;;;;;;20.17;65.63;99107.91;221872;181;138671;-62
2023/09/01 23:20:30;;;;;;;14.10;5.10;;;;;;;20.19;65.81;99115.34;221876;181;147565;-61
2023/09/01 23:25:35;;;;;;;10.40;5.20;;;;;;;20.10;66.06;99117.61;221716;181;139923;-61
2023/09/01 23:30:40;;;;;;;8.80;5.10;;;;;;;19.99;66.46;99116.27;221817;182;137773;-62
2023/09/01 23:35:45;;;;;;;10.80;4.90;;;;;;;19.89;66.73;99113.81;221837;181;149290;-62
2023/09/01 23:40:51;;;;;;;9.80;4.50;;;;;;;19.83;66.77;99113.28;221963;181;139065;-60
2023/09/01 23:45:55;;;;;;;12.60;4.90;;;;;;;19.82;67.21;99120.29;221770;181;138801;-62
2023/09/01 23:51:01;;;;;;;6.60;4.60;;;;;;;19.86;67.22;99127.98;221905;181;150749;-63
2023/09/01 23:56:06;;;;;;;;;;;;;;;19.95;66.95;99136.61;221807;181;140483;-60
